Time;durP1;ratioP1;P1;durP2;ratioP2;P2;SDS_P1;SDS_P2;PMS_P1;PMS_P2;Temp;Humidity;BMP_temperature;BMP_pressure;BME280_temperature;BME280_humidity;BME280_pressure;Samples;Min_cycle;Max_cycle;Signal;HPM_P1;HPM_P2
2022/03/30 00:01:07;;;;;;;;;;;;;;;;;;5055776;28;19948;-48
2022/03/30 00:03:32;;;;;;;;;;;;;;;;;;5055716;28;19959;-47
2022/03/30 00:05:57;;;;;;;;;;;;;;;;;;5055724;28;20233;-48
2022/03/30 00:08:22;;;;;;;;;;;;;;;;;;5055744;28;19959;-48
2022/03/30 00:10:48;;;;;;;;;;;;;;;;;;5055432;28;19951;-48
2022/03/30 00:13:13;;;;;;;;;;;;;;;;;;5054888;28;19919;-49
2022/03/30 00:15:38;;;;;;;;;;;;;;;;;;5055600;28;19909;-50
2022/03/30 00:18:03;;;;;;;;;;;;;;;;;;5056158;28;19916;-49
2022/03/30 00:20:28;;;;;;;;;;;;;;;;;;5055649;28;20054;-48
2022/03/30 00:22:53;;;;;;;;;;;;;;;;;;5055634;28;20315;-47
2022/03/30 00:25:20;;;;;;;;;;;;;;;;;;5055393;28;19916;-49
2022/03/30 00:27:46;;;;;;;;;;;;;;;;;;5055375;28;19940;-48
2022/03/30 00:30:11;;;;;;;;;;;;;;;;;;5055451;28;19962;-48
2022/03/30 00:32:36;;;;;;;;;;;;;;;;;;5054083;28;19915;-48
2022/03/30 00:35:01;;;;;;;;;;;;;;;;;;5055273;28;19912;-48
2022/03/30 00:37:27;;;;;;;;;;;;;;;;;;5055000;28;20359;-48
2022/03/30 00:39:53;;;;;;;;;;;;;;;;;;5055189;28;19913;-48
2022/03/30 00:42:18;;;;;;;;;;;;;;;;;;5055111;28;20422;-48
2022/03/30 00:44:43;;;;;;;;;;;;;;;;;;5054932;28;20020;-49
2022/03/30 00:47:08;;;;;;;;;;;;;;;;;;5053815;28;19991;-48
2022/03/30 00:49:34;;;;;;;;;;;;;;;;;;5054811;28;19912;-48
2022/03/30 00:51:59;;;;;;;;;;;;;;;;;;5054819;28;19932;-48
2022/03/30 00:54:24;;;;;;;;;;;;;;;;;;5054949;28;20317;-48
2022/03/30 00:56:49;;;;;;;;;;;;;;;;;;5052394;28;19920;-48
2022/03/30 00:59:14;;;;;;;;;;;;;;;;;;5054716;28;19909;-50
2022/03/30 01:01:40;;;;;;;;;;;;;;;;;;5054758;28;20010;-48
2022/03/30 01:04:05;;;;;;;;;;;;;;;;;;5054804;28;19962;-48
2022/03/30 01:06:30;;;;;;;;;;;;;;;;;;5054513;28;19919;-48
2022/03/30 01:08:55;;;;;;;;;;;;;;;;;;5054623;28;19934;-48
2022/03/30 01:11:22;;;;;;;;;;;;;;;;;;5054075;28;20379;-48
2022/03/30 01:13:47;;;;;;;;;;;;;;;;;;5054585;28;19909;-48
2022/03/30 01:16:12;;;;;;;;;;;;;;;;;;5054754;28;19916;-47
2022/03/30 01:18:38;;;;;;;;;;;;;;;;;;5054659;28;19909;-51
2022/03/30 01:21:04;;;;;;;;;;;;;;;;;;5054568;28;19966;-48
2022/03/30 01:23:29;;;;;;;;;;;;;;;;;;5053122;28;19932;-49
2022/03/30 01:25:54;;;;;;;;;;;;;;;;;;5054489;28;19913;-48
2022/03/30 01:28:19;;;;;;;;;;;;;;;;;;5054533;28;19913;-50
2022/03/30 01:33:28;;;;;;;;;;;;;;;;;;5054451;28;19916;-47
2022/03/30 01:35:53;;;;;;;;;;;;;;;;;;5054497;28;19909;-48
2022/03/30 01:38:18;;;;;;;;;;;;;;;;;;5054299;28;19955;-50
2022/03/30 01:40:44;;;;;;;;;;;;;;;;;;5054277;28;19916;-48
2022/03/30 01:43:09;;;;;;;;;;;;;;;;;;5054423;28;19912;-48
2022/03/30 01:45:34;;;;;;;;;;;;;;;;;;5054239;28;20347;-48
2022/03/30 01:47:59;;;;;;;;;;;;;;;;;;5054407;28;19909;-48
2022/03/30 01:50:25;;;;;;;;;;;;;;;;;;5054604;28;19980;-47
2022/03/30 01:52:50;;;;;;;;;;;;;;;;;;5054536;28;19909;-48
2022/03/30 01:55:15;;;;;;;;;;;;;;;;;;5054443;28;19909;-47
2022/03/30 01:57:40;;;;;;;;;;;;;;;;;;5054230;28;19925;-47
2022/03/30 02:00:05;;;;;;;;;;;;;;;;;;5054268;28;19932;-47
2022/03/30 02:02:30;;;;;;;;;;;;;;;;;;5054333;28;20324;-47
2022/03/30 02:04:55;;;;;;;;;;;;;;;;;;5054161;28;19913;-47
2022/03/30 02:07:20;;;;;;;;;;;;;;;;;;5054173;28;19909;-49
2022/03/30 02:09:46;;;;;;;;;;;;;;;;;;5054248;28;19909;-48
2022/03/30 02:12:11;;;;;;;;;;;;;;;;;;5054261;28;19913;-48
2022/03/30 02:14:36;;;;;;;;;;;;;;;;;;5054331;28;19915;-49
2022/03/30 02:17:01;;;;;;;;;;;;;;;;;;5054233;28;20271;-48
2022/03/30 02:19:26;;;;;;;;;;;;;;;;;;5053970;28;20280;-48
2022/03/30 02:21:51;;;;;;;;;;;;;;;;;;5054125;28;19962;-48
2022/03/30 02:24:17;;;;;;;;;;;;;;;;;;5056866;28;20367;-48
2022/03/30 02:26:42;;;;;;;;;;;;;;;;;;5057727;28;20432;-48
2022/03/30 02:29:07;;;;;;;;;;;;;;;;;;5057908;28;19909;-47
2022/03/30 02:31:32;;;;;;;;;;;;;;;;;;5057701;28;19915;-48
2022/03/30 02:33:57;;;;;;;;;;;;;;;;;;5057722;28;19913;-47
2022/03/30 02:36:23;;;;;;;;;;;;;;;;;;5057543;28;20272;-49
2022/03/30 02:38:48;;;;;;;;;;;;;;;;;;5057644;28;19908;-48
2022/03/30 02:41:13;;;;;;;;;;;;;;;;;;5057555;28;19909;-50
2022/03/30 02:43:38;;;;;;;;;;;;;;;;;;5057706;28;20016;-48
2022/03/30 02:46:03;;;;;;;;;;;;;;;;;;5057410;28;20360;-49
2022/03/30 02:48:29;;;;;;;;;;;;;;;;;;5057386;28;19920;-49
2022/03/30 02:50:54;;;;;;;;;;;;;;;;;;5057369;28;20259;-50
2022/03/30 02:53:19;;;;;;;;;;;;;;;;;;5057301;28;20376;-49
2022/03/30 02:55:44;;;;;;;;;;;;;;;;;;5057347;28;19916;-48
2022/03/30 02:58:10;;;;;;;;;;;;;;;;;;5057314;28;20318;-48
2022/03/30 03:00:35;;;;;;;;;;;;;;;;;;5057347;28;19908;-49
2022/03/30 03:03:01;;;;;;;;;;;;;;;;;;5057236;28;20019;-48
2022/03/30 03:05:27;;;;;;;;;;;;;;;;;;5057028;28;20363;-51
2022/03/30 03:07:53;;;;;;;;;;;;;;;;;;5056885;28;19916;-48
2022/03/30 03:10:18;;;;;;;;;;;;;;;;;;5056869;28;19909;-48
2022/03/30 03:12:43;;;;;;;;;;;;;;;;;;5056774;28;19923;-51
2022/03/30 03:15:08;;;;;;;;;;;;;;;;;;5056890;28;19915;-49
2022/03/30 03:17:33;;;;;;;;;;;;;;;;;;5056806;28;20003;-48
2022/03/30 03:19:58;;;;;;;;;;;;;;;;;;5056875;28;19963;-48
2022/03/30 03:22:23;;;;;;;;;;;;;;;;;;5056830;28;19960;-50
2022/03/30 03:24:48;;;;;;;;;;;;;;;;;;5056757;28;20252;-51
2022/03/30 03:27:13;;;;;;;;;;;;;;;;;;5056763;28;19909;-49
2022/03/30 03:29:39;;;;;;;;;;;;;;;;;;5056641;28;19908;-50
2022/03/30 03:32:04;;;;;;;;;;;;;;;;;;5056592;28;19909;-48
2022/03/30 03:34:29;;;;;;;;;;;;;;;;;;5054740;28;19916;-48
2022/03/30 03:36:54;;;;;;;;;;;;;;;;;;5056460;28;19908;-50
2022/03/30 03:39:19;;;;;;;;;;;;;;;;;;5056635;28;20417;-47
2022/03/30 03:41:44;;;;;;;;;;;;;;;;;;5056472;28;19908;-48
2022/03/30 03:44:09;;;;;;;;;;;;;;;;;;5056465;28;19967;-48
2022/03/30 03:46:34;;;;;;;;;;;;;;;;;;5056476;28;20283;-48
2022/03/30 03:48:59;;;;;;;;;;;;;;;;;;5056503;28;19920;-49
2022/03/30 03:51:25;;;;;;;;;;;;;;;;;;5056341;28;19908;-48
2022/03/30 03:53:50;;;;;;;;;;;;;;;;;;5056330;28;19909;-48
2022/03/30 03:56:15;;;;;;;;;;;;;;;;;;5054219;28;19909;-48
2022/03/30 03:58:40;;;;;;;;;;;;;;;;;;5056044;28;20376;-49
2022/03/30 04:01:05;;;;;;;;;;;;;;;;;;5056386;28;19916;-48
2022/03/30 04:03:30;;;;;;;;;;;;;;;;;;5056307;28;19916;-48
2022/03/30 04:05:55;;;;;;;;;;;;;;;;;;5056061;28;19920;-49
2022/03/30 04:08:20;;;;;;;;;;;;;;;;;;5055937;28;19917;-48
2022/03/30 04:10:47;;;;;;;;;;;;;;;;;;5056095;28;19905;-48
2022/03/30 04:13:12;;;;;;;;;;;;;;;;;;5056181;28;19931;-51
2022/03/30 04:15:37;;;;;;;;;;;;;;;;;;5056020;28;19909;-48
2022/03/30 04:18:04;;;;;;;;;;;;;;;;;;5056012;28;19967;-48
2022/03/30 04:20:29;;;;;;;;;;;;;;;;;;5055542;28;19987;-48
2022/03/30 04:22:54;;;;;;;;;;;;;;;;;;5055692;28;20331;-48
2022/03/30 04:25:19;;;;;;;;;;;;;;;;;;5055429;28;19920;-50
2022/03/30 04:27:45;;;;;;;;;;;;;;;;;;5055478;28;20011;-49
2022/03/30 04:30:10;;;;;;;;;;;;;;;;;;5055582;28;19948;-49
2022/03/30 04:32:35;;;;;;;;;;;;;;;;;;5055829;28;19909;-50
2022/03/30 04:35:00;;;;;;;;;;;;;;;;;;5055440;28;20279;-48
2022/03/30 04:37:26;;;;;;;;;;;;;;;;;;5055396;28;19909;-49
2022/03/30 04:39:51;;;;;;;;;;;;;;;;;;5055504;28;19913;-51
2022/03/30 04:42:16;;;;;;;;;;;;;;;;;;5055371;28;20039;-48
2022/03/30 04:44:42;;;;;;;;;;;;;;;;;;5055273;28;19924;-48
2022/03/30 04:47:07;;;;;;;;;;;;;;;;;;5053216;28;20336;-47
2022/03/30 04:49:32;;;;;;;;;;;;;;;;;;5055193;28;19909;-48
2022/03/30 04:51:57;;;;;;;;;;;;;;;;;;5055380;28;20337;-48
2022/03/30 04:54:22;;;;;;;;;;;;;;;;;;5055068;28;19995;-51
2022/03/30 04:56:50;;;;;;;;;;;;;;;;;;5055020;28;20350;-48
2022/03/30 04:59:15;;;;;;;;;;;;;;;;;;5055380;28;19999;-48
2022/03/30 05:01:40;;;;;;;;;;;;;;;;;;5054949;28;20335;-48
2022/03/30 05:04:06;;;;;;;;;;;;;;;;;;5055043;28;19996;-48
2022/03/30 05:06:31;;;;;;;;;;;;;;;;;;5054904;28;19960;-48
2022/03/30 05:08:56;;;;;;;;;;;;;;;;;;5055124;28;19909;-48
2022/03/30 05:11:21;;;;;;;;;;;;;;;;;;5054711;28;20355;-48
2022/03/30 05:13:46;;;;;;;;;;;;;;;;;;5054822;28;19916;-48
2022/03/30 05:16:12;;;;;;;;;;;;;;;;;;5053424;28;20054;-49
2022/03/30 05:18:37;;;;;;;;;;;;;;;;;;5054714;28;20348;-50
2022/03/30 05:21:02;;;;;;;;;;;;;;;;;;5054562;28;19956;-48
2022/03/30 05:23:27;;;;;;;;;;;;;;;;;;5054364;28;19931;-48
2022/03/30 05:25:52;;;;;;;;;;;;;;;;;;5053917;28;19919;-47
2022/03/30 05:28:18;;;;;;;;;;;;;;;;;;5054986;28;20423;-52
2022/03/30 05:30:43;;;;;;;;;;;;;;;;;;5053268;28;19955;-52
2022/03/30 05:33:08;;;;;;;;;;;;;;;;;;5053399;28;19967;-53
2022/03/30 05:35:33;;;;;;;;;;;;;;;;;;5054520;28;19921;-52
2022/03/30 05:37:58;;;;;;;;;;;;;;;;;;5055630;28;19912;-51
2022/03/30 05:40:23;;;;;;;;;;;;;;;;;;5057269;28;20436;-53
2022/03/30 05:42:48;;;;;;;;;;;;;;;;;;5050524;28;19917;-52
2022/03/30 05:45:13;;;;;;;;;;;;;;;;;;5048439;28;20325;-54
2022/03/30 05:47:39;;;;;;;;;;;;;;;;;;5044661;28;19913;-52
2022/03/30 05:50:04;;;;;;;;;;;;;;;;;;5044555;28;19920;-53
2022/03/30 05:52:29;;;;;;;;;;;;;;;;;;5045837;28;19920;-50
2022/03/30 05:54:54;;;;;;;;;;;;;;;;;;5043810;28;19921;-51
2022/03/30 05:57:21;;;;;;;;;;;;;;;;;;5044114;28;20454;-52
2022/03/30 05:59:46;;;;;;;;;;;;;;;;;;5040943;28;20433;-53
2022/03/30 06:02:11;;;;;;;;;;;;;;;;;;5037545;28;19912;-50
2022/03/30 06:04:38;;;;;;;;;;;;;;;;;;5027099;28;19917;-52
2022/03/30 06:07:03;;;;;;;;;;;;;;;;;;5034674;28;20287;-51
2022/03/30 06:09:29;;;;;;;;;;;;;;;;;;5027939;28;19921;-51
2022/03/30 06:11:54;;;;;;;;;;;;;;;;;;5018802;28;19927;-51
2022/03/30 06:14:20;;;;;;;;;;;;;;;;;;4998836;28;19921;-53
2022/03/30 06:16:45;;;;;;;;;;;;;;;;;;4976483;28;19975;-53
2022/03/30 06:19:11;;;;;;;;;;;;;;;;;;4944543;28;19925;-53
2022/03/30 06:21:36;;;;;;;;;;;;;;;;;;4912299;28;20392;-52
2022/03/30 06:24:04;;;;;;;;;;;;;;;;;;4826728;28;19935;-52
2022/03/30 06:26:29;;;;;;;;;;;;;;;;;;4805976;28;19962;-51
2022/03/30 06:28:54;;;;;;;;;;;;;;;;;;4861102;28;19980;-52
2022/03/30 06:31:19;;;;;;;;;;;;;;;;;;4898017;28;20400;-51
2022/03/30 06:33:44;;;;;;;;;;;;;;;;;;4940390;28;20006;-52
2022/03/30 06:36:09;;;;;;;;;;;;;;;;;;4953952;28;20094;-52
2022/03/30 06:38:35;;;;;;;;;;;;;;;;;;4966676;28;19948;-52
2022/03/30 06:41:00;;;;;;;;;;;;;;;;;;4976272;28;19928;-52
2022/03/30 06:43:25;;;;;;;;;;;;;;;;;;4966866;28;19988;-51
2022/03/30 06:45:50;;;;;;;;;;;;;;;;;;4955748;28;19925;-52
2022/03/30 06:48:15;;;;;;;;;;;;;;;;;;4912425;28;20683;-51
2022/03/30 06:50:40;;;;;;;;;;;;;;;;;;4949395;28;19973;-51
2022/03/30 06:53:07;;;;;;;;;;;;;;;;;;4936733;28;19925;-51
2022/03/30 06:55:32;;;;;;;;;;;;;;;;;;4943636;28;20379;-50
2022/03/30 06:57:57;;;;;;;;;;;;;;;;;;4948578;28;19966;-48
2022/03/30 07:00:22;;;;;;;;;;;;;;;;;;4893421;28;19956;-55
2022/03/30 07:02:47;;;;;;;;;;;;;;;;;;4892767;28;19921;-52
2022/03/30 07:05:12;;;;;;;;;;;;;;;;;;4876452;28;19978;-51
2022/03/30 07:10:23;;;;;;;;;;;;;;;;;;4794833;28;20064;-53
2022/03/30 07:12:48;;;;;;;;;;;;;;;;;;4745443;28;22150;-52
2022/03/30 07:15:13;;;;;;;;;;;;;;;;;;4740731;28;23012;-54
2022/03/30 07:17:38;;;;;;;;;;;;;;;;;;4770091;28;19967;-51
2022/03/30 07:20:05;;;;;;;;;;;;;;;;;;4823751;28;19971;-53
2022/03/30 07:22:30;;;;;;;;;;;;;;;;;;4853421;28;21370;-52
2022/03/30 07:24:55;;;;;;;;;;;;;;;;;;4825773;28;20057;-51
2022/03/30 07:27:20;;;;;;;;;;;;;;;;;;4831850;28;20047;-50
2022/03/30 07:29:45;;;;;;;;;;;;;;;;;;4808375;28;19924;-53
2022/03/30 07:32:10;;;;;;;;;;;;;;;;;;4830750;28;20244;-54
2022/03/30 07:34:36;;;;;;;;;;;;;;;;;;4848223;28;19928;-51
2022/03/30 07:37:03;;;;;;;;;;;;;;;;;;4846040;28;19924;-52
2022/03/30 07:39:28;;;;;;;;;;;;;;;;;;4830554;28;21338;-53
2022/03/30 07:41:53;;;;;;;;;;;;;;;;;;4856913;28;19963;-55
2022/03/30 07:44:19;;;;;;;;;;;;;;;;;;4886622;28;20185;-51
2022/03/30 07:46:44;;;;;;;;;;;;;;;;;;4881204;28;19924;-54
2022/03/30 07:49:09;;;;;;;;;;;;;;;;;;4874110;28;22582;-51
2022/03/30 07:51:34;;;;;;;;;;;;;;;;;;4888507;28;20647;-50
2022/03/30 07:54:00;;;;;;;;;;;;;;;;;;4894677;28;19921;-51
2022/03/30 07:56:25;;;;;;;;;;;;;;;;;;4904416;22;20643;-52
2022/03/30 07:58:50;;;;;;;;;;;;;;;;;;4891966;28;20949;-51
2022/03/30 08:01:19;;;;;;;;;;;;;;;;;;4904515;28;19925;-54
2022/03/30 08:03:44;;;;;;;;;;;;;;;;;;4915336;28;19921;-51
2022/03/30 08:06:09;;;;;;;;;;;;;;;;;;4911923;28;20006;-52
2022/03/30 08:08:34;;;;;;;;;;;;;;;;;;4904600;28;20323;-51
2022/03/30 08:11:00;;;;;;;;;;;;;;;;;;4876370;28;22153;-53
2022/03/30 08:13:25;;;;;;;;;;;;;;;;;;4662104;28;20485;-54
2022/03/30 08:15:50;;;;;;;;;;;;;;;;;;4647358;28;20211;-52
2022/03/30 08:18:15;;;;;;;;;;;;;;;;;;4757119;28;20689;-53
2022/03/30 08:23:24;;;;;;;;;;;;;;;;;;4772698;28;19974;-54
2022/03/30 08:25:49;;;;;;;;;;;;;;;;;;4739980;28;21720;-51
2022/03/30 08:28:14;;;;;;;;;;;;;;;;;;4690326;28;19932;-54
2022/03/30 08:30:39;;;;;;;;;;;;;;;;;;4785467;28;20172;-49
2022/03/30 08:33:05;;;;;;;;;;;;;;;;;;4813196;28;19932;-57
2022/03/30 08:35:30;;;;;;;;;;;;;;;;;;4848279;28;20005;-53
2022/03/30 08:37:55;;;;;;;;;;;;;;;;;;4858893;28;19927;-54
2022/03/30 08:40:20;;;;;;;;;;;;;;;;;;4864458;28;19920;-51
2022/03/30 08:42:45;;;;;;;;;;;;;;;;;;4880340;28;19901;-53
2022/03/30 08:45:10;;;;;;;;;;;;;;;;;;4864400;28;20059;-52
2022/03/30 08:47:35;;;;;;;;;;;;;;;;;;4859590;28;20051;-53
2022/03/30 08:50:00;;;;;;;;;;;;;;;;;;4863365;28;23019;-55
2022/03/30 08:52:26;;;;;;;;;;;;;;;;;;4880226;28;19921;-53
2022/03/30 08:54:51;;;;;;;;;;;;;;;;;;4889474;28;20008;-53
2022/03/30 08:57:16;;;;;;;;;;;;;;;;;;4877551;28;19928;-54
2022/03/30 08:59:41;;;;;;;;;;;;;;;;;;4876612;28;20027;-51
2022/03/30 09:02:06;;;;;;;;;;;;;;;;;;4871195;28;20039;-54
2022/03/30 09:04:32;;;;;;;;;;;;;;;;;;4888952;28;19928;-52
2022/03/30 09:06:57;;;;;;;;;;;;;;;;;;4886042;28;19964;-52
2022/03/30 09:09:22;;;;;;;;;;;;;;;;;;4881137;28;19921;-52
2022/03/30 09:11:55;;;;;;;;;;;;;;;;;;4904482;28;19927;-52
2022/03/30 09:14:20;;;;;;;;;;;;;;;;;;4878715;28;20035;-54
2022/03/30 09:16:45;;;;;;;;;;;;;;;;;;4861515;28;20255;-54
2022/03/30 09:19:11;;;;;;;;;;;;;;;;;;4838776;28;23466;-51
2022/03/30 09:21:36;;;;;;;;;;;;;;;;;;4804658;28;20060;-50
2022/03/30 09:24:01;;;;;;;;;;;;;;;;;;4746363;28;19921;-53
2022/03/30 09:26:26;;;;;;;;;;;;;;;;;;4778584;28;19925;-53
2022/03/30 09:28:51;;;;;;;;;;;;;;;;;;4794409;28;19921;-52
2022/03/30 09:31:16;;;;;;;;;;;;;;;;;;4860925;28;19928;-52
2022/03/30 09:33:41;;;;;;;;;;;;;;;;;;4862391;28;19980;-53
2022/03/30 09:36:06;;;;;;;;;;;;;;;;;;4867586;28;19921;-54
2022/03/30 09:38:32;;;;;;;;;;;;;;;;;;4860576;28;19924;-53
2022/03/30 09:41:00;;;;;;;;;;;;;;;;;;4864384;28;19921;-53
2022/03/30 09:43:25;;;;;;;;;;;;;;;;;;4905309;28;19921;-53
2022/03/30 09:45:50;;;;;;;;;;;;;;;;;;4911826;28;23986;-55
2022/03/30 09:48:15;;;;;;;;;;;;;;;;;;4921372;28;20032;-52
2022/03/30 09:50:41;;;;;;;;;;;;;;;;;;4933316;28;19920;-52
2022/03/30 09:53:06;;;;;;;;;;;;;;;;;;4935284;28;19957;-51
2022/03/30 09:55:32;;;;;;;;;;;;;;;;;;4908232;28;21485;-52
2022/03/30 09:57:57;;;;;;;;;;;;;;;;;;4890053;28;19936;-52
2022/03/30 10:00:22;;;;;;;;;;;;;;;;;;4891680;28;23047;-50
2022/03/30 10:02:47;;;;;;;;;;;;;;;;;;4847331;28;21430;-52
2022/03/30 10:05:12;;;;;;;;;;;;;;;;;;4846274;28;20332;-53
2022/03/30 10:07:37;;;;;;;;;;;;;;;;;;4809465;28;19920;-53
2022/03/30 10:10:03;;;;;;;;;;;;;;;;;;4841714;28;19921;-53
2022/03/30 10:12:28;;;;;;;;;;;;;;;;;;4868323;28;19932;-52
2022/03/30 10:14:54;;;;;;;;;;;;;;;;;;4864278;28;20066;-52
2022/03/30 10:17:19;;;;;;;;;;;;;;;;;;4894440;28;19927;-56
2022/03/30 10:19:46;;;;;;;;;;;;;;;;;;4919440;28;20059;-52
2022/03/30 10:22:11;;;;;;;;;;;;;;;;;;4906503;28;19921;-51
2022/03/30 10:24:37;;;;;;;;;;;;;;;;;;4911754;28;23668;-52
2022/03/30 10:27:02;;;;;;;;;;;;;;;;;;4914248;28;19928;-55
2022/03/30 10:29:27;;;;;;;;;;;;;;;;;;4906652;28;20043;-53
2022/03/30 10:31:52;;;;;;;;;;;;;;;;;;4903941;28;22763;-54
2022/03/30 10:34:17;;;;;;;;;;;;;;;;;;4919708;28;20003;-54
2022/03/30 10:36:42;;;;;;;;;;;;;;;;;;4924237;28;19964;-53
2022/03/30 10:39:07;;;;;;;;;;;;;;;;;;4923270;28;19920;-52
2022/03/30 10:41:33;;;;;;;;;;;;;;;;;;4946927;28;19999;-55
2022/03/30 10:43:58;;;;;;;;;;;;;;;;;;4905201;28;19975;-56
2022/03/30 10:46:23;;;;;;;;;;;;;;;;;;4918633;28;19939;-53
2022/03/30 10:48:48;;;;;;;;;;;;;;;;;;4916229;28;20237;-52
2022/03/30 10:51:13;;;;;;;;;;;;;;;;;;4920979;28;21208;-52
2022/03/30 10:53:38;;;;;;;;;;;;;;;;;;4934737;28;20079;-51
2022/03/30 10:56:03;;;;;;;;;;;;;;;;;;4949743;28;20611;-52
2022/03/30 10:58:29;;;;;;;;;;;;;;;;;;4949893;28;19920;-51
2022/03/30 11:00:54;;;;;;;;;;;;;;;;;;4941867;28;20106;-55
2022/03/30 11:03:25;;;;;;;;;;;;;;;;;;4910489;28;20409;-53
2022/03/30 11:05:51;;;;;;;;;;;;;;;;;;4843244;28;19932;-53
2022/03/30 11:08:16;;;;;;;;;;;;;;;;;;4864170;28;21285;-52
2022/03/30 11:10:41;;;;;;;;;;;;;;;;;;4873885;28;19935;-53
2022/03/30 11:13:06;;;;;;;;;;;;;;;;;;4867600;28;21285;-51
2022/03/30 11:15:31;;;;;;;;;;;;;;;;;;4910241;28;19984;-52
2022/03/30 11:18:00;;;;;;;;;;;;;;;;;;4914541;28;19928;-52
2022/03/30 11:20:25;;;;;;;;;;;;;;;;;;4924460;28;22586;-53
2022/03/30 11:22:50;;;;;;;;;;;;;;;;;;4928794;28;19931;-50
2022/03/30 11:25:19;;;;;;;;;;;;;;;;;;4936977;28;20988;-52
2022/03/30 11:27:45;;;;;;;;;;;;;;;;;;4955792;28;19956;-52
2022/03/30 11:30:10;;;;;;;;;;;;;;;;;;4946781;28;22279;-53
2022/03/30 11:32:37;;;;;;;;;;;;;;;;;;4899654;28;19921;-51
2022/03/30 11:35:03;;;;;;;;;;;;;;;;;;4947990;28;19975;-53
2022/03/30 11:37:28;;;;;;;;;;;;;;;;;;4949982;28;21753;-53
2022/03/30 11:39:53;;;;;;;;;;;;;;;;;;4956732;28;19968;-51
2022/03/30 11:42:19;;;;;;;;;;;;;;;;;;4965917;28;19959;-53
2022/03/30 11:47:28;;;;;;;;;;;;;;;;;;4994510;28;19927;-52
2022/03/30 11:49:53;;;;;;;;;;;;;;;;;;4986630;28;19921;-53
2022/03/30 11:52:18;;;;;;;;;;;;;;;;;;4989288;28;19924;-54
2022/03/30 11:54:44;;;;;;;;;;;;;;;;;;4979983;28;19921;-53
2022/03/30 11:57:09;;;;;;;;;;;;;;;;;;4989618;28;19928;-51
2022/03/30 11:59:34;;;;;;;;;;;;;;;;;;4994847;28;19954;-50
2022/03/30 12:01:59;;;;;;;;;;;;;;;;;;4983743;28;19960;-51
2022/03/30 12:04:25;;;;;;;;;;;;;;;;;;4993443;28;19955;-50
2022/03/30 12:06:50;;;;;;;;;;;;;;;;;;4993788;28;20754;-53
2022/03/30 12:09:15;;;;;;;;;;;;;;;;;;4991475;28;19921;-55
2022/03/30 12:11:41;;;;;;;;;;;;;;;;;;4992466;28;20089;-52
2022/03/30 12:14:11;;;;;;;;;;;;;;;;;;4981904;28;19928;-55
2022/03/30 12:16:37;;;;;;;;;;;;;;;;;;4987600;28;19921;-52
2022/03/30 12:19:02;;;;;;;;;;;;;;;;;;4986395;28;19927;-54
2022/03/30 12:21:27;;;;;;;;;;;;;;;;;;4968034;28;19920;-53
2022/03/30 12:23:53;;;;;;;;;;;;;;;;;;4922383;28;19960;-51
2022/03/30 12:26:18;;;;;;;;;;;;;;;;;;4922929;28;19984;-55
2022/03/30 12:28:43;;;;;;;;;;;;;;;;;;4939251;28;20083;-52
2022/03/30 12:31:10;;;;;;;;;;;;;;;;;;4950297;28;20769;-53
2022/03/30 12:33:35;;;;;;;;;;;;;;;;;;4970897;28;20019;-53
2022/03/30 12:36:01;;;;;;;;;;;;;;;;;;4983017;28;20688;-54
2022/03/30 12:38:26;;;;;;;;;;;;;;;;;;4992986;28;19920;-52
2022/03/30 12:40:54;;;;;;;;;;;;;;;;;;4997784;28;19921;-51
2022/03/30 12:43:21;;;;;;;;;;;;;;;;;;5001924;28;19936;-53
2022/03/30 12:45:46;;;;;;;;;;;;;;;;;;5012977;28;19971;-52
2022/03/30 12:48:11;;;;;;;;;;;;;;;;;;4994531;28;19920;-52
2022/03/30 12:50:37;;;;;;;;;;;;;;;;;;5001964;28;20753;-52
2022/03/30 12:53:02;;;;;;;;;;;;;;;;;;4998965;28;20363;-52
2022/03/30 12:55:34;;;;;;;;;;;;;;;;;;5015196;28;19927;-52
2022/03/30 12:57:59;;;;;;;;;;;;;;;;;;4999069;28;20011;-56
2022/03/30 13:00:24;;;;;;;;;;;;;;;;;;5003954;28;19925;-53
2022/03/30 13:02:50;;;;;;;;;;;;;;;;;;4997181;28;19926;-54
2022/03/30 13:05:15;;;;;;;;;;;;;;;;;;5010954;28;20551;-52
2022/03/30 13:07:40;;;;;;;;;;;;;;;;;;4993007;28;20659;-52
2022/03/30 13:10:05;;;;;;;;;;;;;;;;;;4998125;28;19948;-55
2022/03/30 13:12:31;;;;;;;;;;;;;;;;;;4983320;28;20007;-54
2022/03/30 13:14:56;;;;;;;;;;;;;;;;;;4999156;28;19917;-53
2022/03/30 13:17:21;;;;;;;;;;;;;;;;;;5004749;28;20059;-54
2022/03/30 13:19:46;;;;;;;;;;;;;;;;;;5017563;28;20084;-52
2022/03/30 13:22:11;;;;;;;;;;;;;;;;;;5025353;28;20296;-52
2022/03/30 13:24:36;;;;;;;;;;;;;;;;;;5029364;28;19928;-51
2022/03/30 13:27:03;;;;;;;;;;;;;;;;;;5033520;28;21464;-52
2022/03/30 13:29:29;;;;;;;;;;;;;;;;;;5034910;28;20020;-52
2022/03/30 13:31:54;;;;;;;;;;;;;;;;;;5035064;28;19931;-53
2022/03/30 13:34:19;;;;;;;;;;;;;;;;;;5031439;28;19967;-52
2022/03/30 13:36:45;;;;;;;;;;;;;;;;;;5035888;28;19928;-53
2022/03/30 13:39:10;;;;;;;;;;;;;;;;;;5032060;28;20447;-51
2022/03/30 13:41:35;;;;;;;;;;;;;;;;;;5034348;28;19914;-51
2022/03/30 13:44:00;;;;;;;;;;;;;;;;;;5035322;28;19920;-51
2022/03/30 13:46:25;;;;;;;;;;;;;;;;;;5039654;28;19925;-52
2022/03/30 13:48:50;;;;;;;;;;;;;;;;;;5035433;28;19920;-51
2022/03/30 13:51:15;;;;;;;;;;;;;;;;;;5034855;28;19952;-52
2022/03/30 13:53:41;;;;;;;;;;;;;;;;;;5035713;28;20387;-52
2022/03/30 13:56:06;;;;;;;;;;;;;;;;;;5033286;28;20549;-54
2022/03/30 13:58:31;;;;;;;;;;;;;;;;;;5025433;28;19921;-53
2022/03/30 14:00:56;;;;;;;;;;;;;;;;;;5016647;28;19920;-55
2022/03/30 14:03:21;;;;;;;;;;;;;;;;;;5020253;28;20015;-51
2022/03/30 14:05:46;;;;;;;;;;;;;;;;;;5023807;28;20387;-52
2022/03/30 14:08:12;;;;;;;;;;;;;;;;;;5030224;28;19920;-52
2022/03/30 14:10:37;;;;;;;;;;;;;;;;;;5037615;28;19913;-53
2022/03/30 14:13:02;;;;;;;;;;;;;;;;;;5036689;28;20062;-53
2022/03/30 14:15:27;;;;;;;;;;;;;;;;;;5036666;28;20406;-51
2022/03/30 14:17:52;;;;;;;;;;;;;;;;;;5035687;28;20367;-51
2022/03/30 14:20:19;;;;;;;;;;;;;;;;;;5036245;28;19928;-52
2022/03/30 14:22:45;;;;;;;;;;;;;;;;;;5040414;28;20784;-51
2022/03/30 14:25:10;;;;;;;;;;;;;;;;;;5037493;28;19917;-53
2022/03/30 14:27:35;;;;;;;;;;;;;;;;;;5048042;28;20010;-51
2022/03/30 14:30:01;;;;;;;;;;;;;;;;;;5040767;28;19967;-55
2022/03/30 14:32:26;;;;;;;;;;;;;;;;;;5045006;28;19923;-52
2022/03/30 14:34:52;;;;;;;;;;;;;;;;;;5043986;28;19966;-53
2022/03/30 14:37:18;;;;;;;;;;;;;;;;;;5046190;28;19935;-52
2022/03/30 14:39:43;;;;;;;;;;;;;;;;;;5048950;28;19917;-51
2022/03/30 14:42:08;;;;;;;;;;;;;;;;;;5046654;28;19913;-53
2022/03/30 14:44:33;;;;;;;;;;;;;;;;;;5047327;28;19929;-53
2022/03/30 14:46:58;;;;;;;;;;;;;;;;;;5048414;28;19925;-53
2022/03/30 14:49:24;;;;;;;;;;;;;;;;;;5054751;28;19920;-50
2022/03/30 14:51:49;;;;;;;;;;;;;;;;;;5044675;28;19976;-52
2022/03/30 14:54:14;;;;;;;;;;;;;;;;;;5047837;28;19917;-52
2022/03/30 14:56:40;;;;;;;;;;;;;;;;;;5043988;28;19920;-52
2022/03/30 14:59:06;;;;;;;;;;;;;;;;;;5050533;28;20433;-52
2022/03/30 15:01:31;;;;;;;;;;;;;;;;;;5043058;28;19951;-52
2022/03/30 15:03:56;;;;;;;;;;;;;;;;;;5047871;28;19917;-54
2022/03/30 15:06:21;;;;;;;;;;;;;;;;;;5047580;28;19921;-53
2022/03/30 15:08:47;;;;;;;;;;;;;;;;;;5049797;28;19920;-53
2022/03/30 15:11:13;;;;;;;;;;;;;;;;;;5045959;28;19913;-53
2022/03/30 15:13:38;;;;;;;;;;;;;;;;;;5043396;28;20395;-52
2022/03/30 15:16:04;;;;;;;;;;;;;;;;;;5052407;28;19913;-52
2022/03/30 15:18:29;;;;;;;;;;;;;;;;;;5042707;28;20379;-53
2022/03/30 15:20:54;;;;;;;;;;;;;;;;;;5050475;28;20293;-53
2022/03/30 15:23:19;;;;;;;;;;;;;;;;;;5045055;28;19920;-52
2022/03/30 15:25:44;;;;;;;;;;;;;;;;;;5046293;28;20273;-53
2022/03/30 15:28:09;;;;;;;;;;;;;;;;;;5046589;28;20032;-52
2022/03/30 15:30:35;;;;;;;;;;;;;;;;;;5045479;28;19913;-52
2022/03/30 15:33:01;;;;;;;;;;;;;;;;;;5047791;28;19943;-53
2022/03/30 15:35:26;;;;;;;;;;;;;;;;;;5041586;28;19921;-53
2022/03/30 15:37:51;;;;;;;;;;;;;;;;;;5044178;28;20678;-51
2022/03/30 15:40:16;;;;;;;;;;;;;;;;;;5042200;28;19948;-53
2022/03/30 15:42:42;;;;;;;;;;;;;;;;;;5044881;28;19914;-53
2022/03/30 15:45:07;;;;;;;;;;;;;;;;;;5044493;28;19928;-53
2022/03/30 15:47:32;;;;;;;;;;;;;;;;;;5043423;28;20371;-52
2022/03/30 15:49:57;;;;;;;;;;;;;;;;;;5041917;28;19919;-53
2022/03/30 15:52:23;;;;;;;;;;;;;;;;;;5053708;28;20372;-55
2022/03/30 15:54:48;;;;;;;;;;;;;;;;;;5052611;28;19912;-53
2022/03/30 15:57:13;;;;;;;;;;;;;;;;;;5047473;28;19916;-52
2022/03/30 15:59:38;;;;;;;;;;;;;;;;;;5043794;28;19913;-52
2022/03/30 16:02:05;;;;;;;;;;;;;;;;;;5050283;28;19912;-49
2022/03/30 16:04:30;;;;;;;;;;;;;;;;;;5047974;28;20011;-49
2022/03/30 16:06:55;;;;;;;;;;;;;;;;;;5046134;28;20007;-50
2022/03/30 16:09:21;;;;;;;;;;;;;;;;;;5040100;28;20602;-49
2022/03/30 16:14:29;;;;;;;;;;;;;;;;;;5047220;28;19963;-49
2022/03/30 16:16:55;;;;;;;;;;;;;;;;;;5043082;28;19913;-49
2022/03/30 16:19:22;;;;;;;;;;;;;;;;;;5045961;28;19921;-51
2022/03/30 16:21:47;;;;;;;;;;;;;;;;;;5044741;28;19921;-50
2022/03/30 16:24:13;;;;;;;;;;;;;;;;;;5072224;28;19908;-50
2022/03/30 16:26:38;;;;;;;;;;;;;;;;;;5035688;28;19917;-49
2022/03/30 16:29:03;;;;;;;;;;;;;;;;;;5035737;28;19916;-49
2022/03/30 16:31:34;;;;;;;;;;;;;;;;;;5035529;28;19920;-49
2022/03/30 16:34:01;;;;;;;;;;;;;;;;;;5051392;28;19991;-49
2022/03/30 16:36:27;;;;;;;;;;;;;;;;;;5035606;28;20395;-49
2022/03/30 16:38:52;;;;;;;;;;;;;;;;;;5035740;28;19910;-51
2022/03/30 16:41:17;;;;;;;;;;;;;;;;;;5034692;28;19916;-51
2022/03/30 16:43:42;;;;;;;;;;;;;;;;;;5035123;28;19963;-48
2022/03/30 16:46:08;;;;;;;;;;;;;;;;;;5049706;28;20023;-50